sensor_id;sensor_type;location;lat;lon;timestamp;temperature;humidity
24049;DHT22;12250;50.956;4.746;2023-03-14T00:00:36;12.10;99.90
24049;DHT22;12250;50.956;4.746;2023-03-14T00:03:01;12.10;99.90
24049;DHT22;12250;50.956;4.746;2023-03-14T00:05:27;12.20;99.90
24049;DHT22;12250;50.956;4.746;2023-03-14T00:07:53;12.20;99.90
24049;DHT22;12250;50.956;4.746;2023-03-14T00:10:19;12.20;99.90
24049;DHT22;12250;50.956;4.746;2023-03-14T00:12:45;12.30;99.90
24049;DHT22;12250;50.956;4.746;2023-03-14T00:15:11;12.40;99.90
24049;DHT22;12250;50.956;4.746;2023-03-14T00:17:37;12.40;99.90
24049;DHT22;12250;50.956;4.746;2023-03-14T00:20:05;12.40;99.90
24049;DHT22;12250;50.956;4.746;2023-03-14T00:22:35;12.30;99.90
24049;DHT22;12250;50.956;4.746;2023-03-14T00:25:01;12.30;99.90
24049;DHT22;12250;50.956;4.746;2023-03-14T00:27:28;12.30;99.90
24049;DHT22;12250;50.956;4.746;2023-03-14T00:29:54;12.30;99.90
24049;DHT22;12250;50.956;4.746;2023-03-14T00:32:20;12.30;99.90
24049;DHT22;12250;50.956;4.746;2023-03-14T00:34:45;12.30;99.90
24049;DHT22;12250;50.956;4.746;2023-03-14T00:37:11;12.20;99.90
24049;DHT22;12250;50.956;4.746;2023-03-14T00:39:37;12.20;99.90
24049;DHT22;12250;50.956;4.746;2023-03-14T00:42:02;12.40;99.90
24049;DHT22;12250;50.956;4.746;2023-03-14T00:44:29;12.40;99.90
24049;DHT22;12250;50.956;4.746;2023-03-14T00:46:54;12.40;99.90
24049;DHT22;12250;50.956;4.746;2023-03-14T00:49:20;12.50;99.90
24049;DHT22;12250;50.956;4.746;2023-03-14T00:51:46;12.40;99.90
24049;DHT22;12250;50.956;4.746;2023-03-14T00:54:11;12.50;99.90
24049;DHT22;12250;50.956;4.746;2023-03-14T00:56:37;12.40;99.90
24049;DHT22;12250;50.956;4.746;2023-03-14T00:59:03;12.30;99.90
24049;DHT22;12250;50.956;4.746;2023-03-14T01:01:28;12.30;99.90
24049;DHT22;12250;50.956;4.746;2023-03-14T01:03:55;12.40;99.90
24049;DHT22;12250;50.956;4.746;2023-03-14T01:06:26;12.40;99.90
24049;DHT22;12250;50.956;4.746;2023-03-14T01:08:53;12.50;99.90
24049;DHT22;12250;50.956;4.746;2023-03-14T01:13:46;12.30;99.90
24049;DHT22;12250;50.956;4.746;2023-03-14T01:16:14;12.30;99.90
24049;DHT22;12250;50.956;4.746;2023-03-14T01:18:42;12.20;99.90
24049;DHT22;12250;50.956;4.746;2023-03-14T01:21:29;12.10;99.90
24049;DHT22;12250;50.956;4.746;2023-03-14T01:23:57;11.90;99.90
24049;DHT22;12250;50.956;4.746;2023-03-14T01:26:24;11.80;99.90
24049;DHT22;12250;50.956;4.746;2023-03-14T01:28:52;11.80;99.90
24049;DHT22;12250;50.956;4.746;2023-03-14T01:31:18;11.80;99.90
24049;DHT22;12250;50.956;4.746;2023-03-14T01:33:45;11.80;99.90
24049;DHT22;12250;50.956;4.746;2023-03-14T01:36:11;11.90;99.90
24049;DHT22;12250;50.956;4.746;2023-03-14T01:38:39;12.00;99.90
24049;DHT22;12250;50.956;4.746;2023-03-14T01:41:06;12.00;99.90
24049;DHT22;12250;50.956;4.746;2023-03-14T01:43:32;12.10;99.90
24049;DHT22;12250;50.956;4.746;2023-03-14T01:48:40;12.10;99.90
24049;DHT22;12250;50.956;4.746;2023-03-14T01:51:11;12.10;99.90
24049;DHT22;12250;50.956;4.746;2023-03-14T01:53:40;12.10;99.90
24049;DHT22;12250;50.956;4.746;2023-03-14T01:56:09;12.00;99.90
24049;DHT22;12250;50.956;4.746;2023-03-14T01:58:36;12.00;99.90
24049;DHT22;12250;50.956;4.746;2023-03-14T02:01:05;12.00;99.90
24049;DHT22;12250;50.956;4.746;2023-03-14T02:03:35;11.80;99.90
24049;DHT22;12250;50.956;4.746;2023-03-14T02:06:06;11.60;99.90
24049;DHT22;12250;50.956;4.746;2023-03-14T02:08:33;11.70;99.90
24049;DHT22;12250;50.956;4.746;2023-03-14T02:11:00;11.70;99.90
24049;DHT22;12250;50.956;4.746;2023-03-14T02:13:26;11.70;99.90
24049;DHT22;12250;50.956;4.746;2023-03-14T02:15:52;11.80;99.90
24049;DHT22;12250;50.956;4.746;2023-03-14T02:18:18;11.80;99.90
24049;DHT22;12250;50.956;4.746;2023-03-14T02:20:47;11.70;99.90
24049;DHT22;12250;50.956;4.746;2023-03-14T02:23:16;11.60;99.90
24049;DHT22;12250;50.956;4.746;2023-03-14T02:28:09;11.40;99.90
24049;DHT22;12250;50.956;4.746;2023-03-14T02:30:35;11.40;99.90
24049;DHT22;12250;50.956;4.746;2023-03-14T02:33:05;11.40;99.90
24049;DHT22;12250;50.956;4.746;2023-03-14T02:36:01;11.40;99.90
24049;DHT22;12250;50.956;4.746;2023-03-14T02:41:12;11.20;99.90
24049;DHT22;12250;50.956;4.746;2023-03-14T02:43:38;11.10;99.90
24049;DHT22;12250;50.956;4.746;2023-03-14T02:46:05;10.90;99.90
24049;DHT22;12250;50.956;4.746;2023-03-14T02:48:57;10.80;99.90
24049;DHT22;12250;50.956;4.746;2023-03-14T02:51:26;10.70;99.90
24049;DHT22;12250;50.956;4.746;2023-03-14T02:53:51;10.60;99.90
24049;DHT22;12250;50.956;4.746;2023-03-14T02:56:17;10.50;99.90
24049;DHT22;12250;50.956;4.746;2023-03-14T02:58:43;10.50;99.90
24049;DHT22;12250;50.956;4.746;2023-03-14T03:01:08;10.50;99.90
24049;DHT22;12250;50.956;4.746;2023-03-14T03:03:34;10.50;99.90
24049;DHT22;12250;50.956;4.746;2023-03-14T03:06:00;10.40;99.90
24049;DHT22;12250;50.956;4.746;2023-03-14T03:08:26;10.30;99.90
24049;DHT22;12250;50.956;4.746;2023-03-14T03:10:53;10.30;99.90
24049;DHT22;12250;50.956;4.746;2023-03-14T03:13:19;10.30;99.90
24049;DHT22;12250;50.956;4.746;2023-03-14T03:15:45;10.30;99.90
24049;DHT22;12250;50.956;4.746;2023-03-14T03:18:11;10.20;99.90
24049;DHT22;12250;50.956;4.746;2023-03-14T03:20:37;10.00;99.90
24049;DHT22;12250;50.956;4.746;2023-03-14T03:23:03;9.90;99.90
24049;DHT22;12250;50.956;4.746;2023-03-14T03:25:29;9.80;99.90
24049;DHT22;12250;50.956;4.746;2023-03-14T03:27:55;9.90;99.90
24049;DHT22;12250;50.956;4.746;2023-03-14T03:30:20;9.90;99.90
24049;DHT22;12250;50.956;4.746;2023-03-14T03:32:46;9.90;99.90
24049;DHT22;12250;50.956;4.746;2023-03-14T03:35:12;10.00;99.90
24049;DHT22;12250;50.956;4.746;2023-03-14T03:37:39;10.00;99.90
24049;DHT22;12250;50.956;4.746;2023-03-14T03:40:05;10.10;99.90
24049;DHT22;12250;50.956;4.746;2023-03-14T03:42:32;10.10;99.90
24049;DHT22;12250;50.956;4.746;2023-03-14T03:44:59;10.30;99.90
24049;DHT22;12250;50.956;4.746;2023-03-14T03:47:26;10.10;99.90
24049;DHT22;12250;50.956;4.746;2023-03-14T03:49:51;10.10;99.90
24049;DHT22;12250;50.956;4.746;2023-03-14T03:52:17;10.10;99.90
24049;DHT22;12250;50.956;4.746;2023-03-14T03:54:43;10.10;99.90
24049;DHT22;12250;50.956;4.746;2023-03-14T03:57:09;10.20;99.90
24049;DHT22;12250;50.956;4.746;2023-03-14T03:59:35;10.20;99.90
24049;DHT22;12250;50.956;4.746;2023-03-14T04:02:00;10.30;99.90
24049;DHT22;12250;50.956;4.746;2023-03-14T04:04:26;10.40;99.90
24049;DHT22;12250;50.956;4.746;2023-03-14T04:06:52;10.40;99.90
24049;DHT22;12250;50.956;4.746;2023-03-14T04:09:18;10.30;99.90
24049;DHT22;12250;50.956;4.746;2023-03-14T04:11:43;10.20;99.90
24049;DHT22;12250;50.956;4.746;2023-03-14T04:14:09;10.10;99.90
24049;DHT22;12250;50.956;4.746;2023-03-14T04:16:35;10.10;99.90
24049;DHT22;12250;50.956;4.746;2023-03-14T04:19:02;10.10;99.90
24049;DHT22;12250;50.956;4.746;2023-03-14T04:21:27;10.10;99.90
24049;DHT22;12250;50.956;4.746;2023-03-14T04:23:53;10.10;99.90
24049;DHT22;12250;50.956;4.746;2023-03-14T04:26:19;10.30;99.90
24049;DHT22;12250;50.956;4.746;2023-03-14T04:28:45;10.30;99.90
24049;DHT22;12250;50.956;4.746;2023-03-14T04:31:13;10.40;99.90
24049;DHT22;12250;50.956;4.746;2023-03-14T04:33:39;10.40;99.90
24049;DHT22;12250;50.956;4.746;2023-03-14T04:36:05;10.40;99.90
24049;DHT22;12250;50.956;4.746;2023-03-14T04:38:31;10.50;99.90
24049;DHT22;12250;50.956;4.746;2023-03-14T04:40:57;10.50;99.90
24049;DHT22;12250;50.956;4.746;2023-03-14T04:43:23;10.60;99.90
24049;DHT22;12250;50.956;4.746;2023-03-14T04:45:49;10.60;99.90
24049;DHT22;12250;50.956;4.746;2023-03-14T04:48:14;10.60;99.90
24049;DHT22;12250;50.956;4.746;2023-03-14T04:50:40;10.60;99.90
24049;DHT22;12250;50.956;4.746;2023-03-14T04:53:06;10.60;99.90
24049;DHT22;12250;50.956;4.746;2023-03-14T04:55:32;10.70;99.90
24049;DHT22;12250;50.956;4.746;2023-03-14T04:58:00;10.70;99.90
24049;DHT22;12250;50.956;4.746;2023-03-14T05:00:25;10.70;99.90
24049;DHT22;12250;50.956;4.746;2023-03-14T05:02:51;10.70;99.90
24049;DHT22;12250;50.956;4.746;2023-03-14T05:05:17;10.70;99.90
24049;DHT22;12250;50.956;4.746;2023-03-14T05:07:42;10.70;99.90
24049;DHT22;12250;50.956;4.746;2023-03-14T05:10:09;10.70;99.90
24049;DHT22;12250;50.956;4.746;2023-03-14T05:12:35;10.80;99.90
24049;DHT22;12250;50.956;4.746;2023-03-14T05:15:00;10.80;99.90
24049;DHT22;12250;50.956;4.746;2023-03-14T05:17:26;10.80;99.90
24049;DHT22;12250;50.956;4.746;2023-03-14T05:19:52;10.80;99.90
24049;DHT22;12250;50.956;4.746;2023-03-14T05:22:18;10.80;99.90
24049;DHT22;12250;50.956;4.746;2023-03-14T05:24:43;10.80;99.90
24049;DHT22;12250;50.956;4.746;2023-03-14T05:27:09;10.80;99.90
24049;DHT22;12250;50.956;4.746;2023-03-14T05:29:35;10.80;99.90
24049;DHT22;12250;50.956;4.746;2023-03-14T05:32:00;10.90;99.90
24049;DHT22;12250;50.956;4.746;2023-03-14T05:34:26;10.90;99.90
24049;DHT22;12250;50.956;4.746;2023-03-14T05:36:52;10.90;99.90
24049;DHT22;12250;50.956;4.746;2023-03-14T05:39:18;10.90;99.90
24049;DHT22;12250;50.956;4.746;2023-03-14T05:41:44;10.90;99.90
24049;DHT22;12250;50.956;4.746;2023-03-14T05:44:09;10.90;99.90
24049;DHT22;12250;50.956;4.746;2023-03-14T05:46:35;11.00;99.90
24049;DHT22;12250;50.956;4.746;2023-03-14T05:49:01;11.00;99.90
24049;DHT22;12250;50.956;4.746;2023-03-14T05:51:26;11.00;99.90
24049;DHT22;12250;50.956;4.746;2023-03-14T05:53:52;11.00;99.90
24049;DHT22;12250;50.956;4.746;2023-03-14T05:56:18;11.00;99.90
24049;DHT22;12250;50.956;4.746;2023-03-14T05:58:44;11.00;99.90
24049;DHT22;12250;50.956;4.746;2023-03-14T06:01:09;11.00;99.90
24049;DHT22;12250;50.956;4.746;2023-03-14T06:03:35;11.00;99.90
24049;DHT22;12250;50.956;4.746;2023-03-14T06:06:01;11.00;99.90
24049;DHT22;12250;50.956;4.746;2023-03-14T06:08:27;11.00;99.90
24049;DHT22;12250;50.956;4.746;2023-03-14T06:10:53;11.10;99.90
24049;DHT22;12250;50.956;4.746;2023-03-14T06:13:20;11.10;99.90
24049;DHT22;12250;50.956;4.746;2023-03-14T06:15:46;11.10;99.90
24049;DHT22;12250;50.956;4.746;2023-03-14T06:18:12;11.10;99.90
24049;DHT22;12250;50.956;4.746;2023-03-14T06:20:39;11.10;99.90
24049;DHT22;12250;50.956;4.746;2023-03-14T06:23:08;11.10;99.90
24049;DHT22;12250;50.956;4.746;2023-03-14T06:25:35;11.20;99.90
24049;DHT22;12250;50.956;4.746;2023-03-14T06:28:01;11.30;99.90
24049;DHT22;12250;50.956;4.746;2023-03-14T06:30:27;11.40;99.90
24049;DHT22;12250;50.956;4.746;2023-03-14T06:32:53;11.40;99.90
24049;DHT22;12250;50.956;4.746;2023-03-14T06:35:19;11.40;99.90
24049;DHT22;12250;50.956;4.746;2023-03-14T06:37:44;11.40;99.90
24049;DHT22;12250;50.956;4.746;2023-03-14T06:40:11;11.40;99.90
24049;DHT22;12250;50.956;4.746;2023-03-14T06:42:39;11.40;99.90
24049;DHT22;12250;50.956;4.746;2023-03-14T06:45:05;11.50;99.90
24049;DHT22;12250;50.956;4.746;2023-03-14T06:47:31;11.50;99.90
24049;DHT22;12250;50.956;4.746;2023-03-14T06:49:56;11.40;99.90
24049;DHT22;12250;50.956;4.746;2023-03-14T06:52:22;11.40;99.90
24049;DHT22;12250;50.956;4.746;2023-03-14T06:54:48;11.30;99.90
24049;DHT22;12250;50.956;4.746;2023-03-14T06:57:13;11.30;99.90
24049;DHT22;12250;50.956;4.746;2023-03-14T06:59:39;11.20;99.90
24049;DHT22;12250;50.956;4.746;2023-03-14T07:02:07;11.20;99.90
24049;DHT22;12250;50.956;4.746;2023-03-14T07:04:33;11.30;99.90
24049;DHT22;12250;50.956;4.746;2023-03-14T07:06:58;11.30;99.90
24049;DHT22;12250;50.956;4.746;2023-03-14T07:09:24;11.30;99.90
24049;DHT22;12250;50.956;4.746;2023-03-14T07:11:50;11.20;99.90
24049;DHT22;12250;50.956;4.746;2023-03-14T07:14:15;11.00;99.90
24049;DHT22;12250;50.956;4.746;2023-03-14T07:16:41;10.50;99.90
24049;DHT22;12250;50.956;4.746;2023-03-14T07:19:07;10.20;99.90
24049;DHT22;12250;50.956;4.746;2023-03-14T07:21:33;9.80;99.90
24049;DHT22;12250;50.956;4.746;2023-03-14T07:24:00;9.60;99.90
24049;DHT22;12250;50.956;4.746;2023-03-14T07:26:25;9.50;99.90
24049;DHT22;12250;50.956;4.746;2023-03-14T07:28:51;9.40;99.90
24049;DHT22;12250;50.956;4.746;2023-03-14T07:31:17;9.20;99.90
24049;DHT22;12250;50.956;4.746;2023-03-14T07:33:43;9.00;99.90
24049;DHT22;12250;50.956;4.746;2023-03-14T07:36:09;8.90;99.90
24049;DHT22;12250;50.956;4.746;2023-03-14T07:38:35;8.80;99.90
24049;DHT22;12250;50.956;4.746;2023-03-14T07:41:02;8.70;99.90
24049;DHT22;12250;50.956;4.746;2023-03-14T07:43:28;8.60;99.90
24049;DHT22;12250;50.956;4.746;2023-03-14T07:45:55;8.60;99.90
24049;DHT22;12250;50.956;4.746;2023-03-14T07:48:21;8.50;99.90
24049;DHT22;12250;50.956;4.746;2023-03-14T07:50:51;8.40;99.90
24049;DHT22;12250;50.956;4.746;2023-03-14T07:53:17;8.30;99.90
24049;DHT22;12250;50.956;4.746;2023-03-14T07:55:43;8.30;99.90
24049;DHT22;12250;50.956;4.746;2023-03-14T07:58:09;8.40;99.90
24049;DHT22;12250;50.956;4.746;2023-03-14T08:00:35;8.50;99.90
24049;DHT22;12250;50.956;4.746;2023-03-14T08:03:00;8.60;99.90
24049;DHT22;12250;50.956;4.746;2023-03-14T08:05:26;8.60;99.90
24049;DHT22;12250;50.956;4.746;2023-03-14T08:07:52;8.60;99.90
24049;DHT22;12250;50.956;4.746;2023-03-14T08:10:18;8.40;99.90
24049;DHT22;12250;50.956;4.746;2023-03-14T08:12:49;8.50;99.90
24049;DHT22;12250;50.956;4.746;2023-03-14T08:15:14;8.60;99.90
24049;DHT22;12250;50.956;4.746;2023-03-14T08:17:40;8.70;99.90
24049;DHT22;12250;50.956;4.746;2023-03-14T08:20:06;8.70;99.90
24049;DHT22;12250;50.956;4.746;2023-03-14T08:22:33;8.70;99.90
24049;DHT22;12250;50.956;4.746;2023-03-14T08:24:59;8.80;99.90
24049;DHT22;12250;50.956;4.746;2023-03-14T08:27:24;9.10;99.90
24049;DHT22;12250;50.956;4.746;2023-03-14T08:29:50;9.10;99.90
24049;DHT22;12250;50.956;4.746;2023-03-14T08:32:15;9.00;99.90
24049;DHT22;12250;50.956;4.746;2023-03-14T08:34:41;8.90;99.90
24049;DHT22;12250;50.956;4.746;2023-03-14T08:37:07;8.90;99.90
24049;DHT22;12250;50.956;4.746;2023-03-14T08:39:33;8.90;99.90
24049;DHT22;12250;50.956;4.746;2023-03-14T08:41:58;9.00;99.90
24049;DHT22;12250;50.956;4.746;2023-03-14T08:44:24;9.10;99.90
24049;DHT22;12250;50.956;4.746;2023-03-14T08:46:50;9.10;99.90
24049;DHT22;12250;50.956;4.746;2023-03-14T08:49:15;9.10;99.90
24049;DHT22;12250;50.956;4.746;2023-03-14T08:51:41;9.10;99.90
24049;DHT22;12250;50.956;4.746;2023-03-14T08:54:10;9.00;99.90
24049;DHT22;12250;50.956;4.746;2023-03-14T08:56:36;9.10;99.90
24049;DHT22;12250;50.956;4.746;2023-03-14T08:59:04;9.20;99.90
24049;DHT22;12250;50.956;4.746;2023-03-14T09:01:29;9.50;99.90
24049;DHT22;12250;50.956;4.746;2023-03-14T09:03:55;9.60;99.90
24049;DHT22;12250;50.956;4.746;2023-03-14T09:06:21;9.70;99.90
24049;DHT22;12250;50.956;4.746;2023-03-14T09:08:47;9.70;99.90
24049;DHT22;12250;50.956;4.746;2023-03-14T09:11:13;9.80;99.90
24049;DHT22;12250;50.956;4.746;2023-03-14T09:13:39;9.90;99.90
24049;DHT22;12250;50.956;4.746;2023-03-14T09:16:05;9.90;99.90
24049;DHT22;12250;50.956;4.746;2023-03-14T09:18:32;10.00;99.90
24049;DHT22;12250;50.956;4.746;2023-03-14T09:20:57;10.30;99.90
24049;DHT22;12250;50.956;4.746;2023-03-14T09:23:23;10.50;99.90
24049;DHT22;12250;50.956;4.746;2023-03-14T09:25:49;10.70;99.90
24049;DHT22;12250;50.956;4.746;2023-03-14T09:28:14;10.80;99.90
24049;DHT22;12250;50.956;4.746;2023-03-14T09:30:40;10.60;99.90
24049;DHT22;12250;50.956;4.746;2023-03-14T09:33:06;10.50;99.90
24049;DHT22;12250;50.956;4.746;2023-03-14T09:35:34;10.40;99.90
24049;DHT22;12250;50.956;4.746;2023-03-14T09:37:59;10.30;99.90
24049;DHT22;12250;50.956;4.746;2023-03-14T09:40:32;10.00;99.90
24049;DHT22;12250;50.956;4.746;2023-03-14T09:42:59;9.90;99.90
24049;DHT22;12250;50.956;4.746;2023-03-14T09:45:36;9.80;99.90
24049;DHT22;12250;50.956;4.746;2023-03-14T09:48:05;9.70;99.90
24049;DHT22;12250;50.956;4.746;2023-03-14T09:50:38;9.60;99.90
24049;DHT22;12250;50.956;4.746;2023-03-14T09:53:14;9.50;99.90
24049;DHT22;12250;50.956;4.746;2023-03-14T09:55:42;9.60;99.90
24049;DHT22;12250;50.956;4.746;2023-03-14T09:58:17;9.50;99.90
24049;DHT22;12250;50.956;4.746;2023-03-14T10:00:44;9.60;99.90
24049;DHT22;12250;50.956;4.746;2023-03-14T10:05:40;9.70;99.90
24049;DHT22;12250;50.956;4.746;2023-03-14T10:08:06;9.60;99.90
24049;DHT22;12250;50.956;4.746;2023-03-14T10:10:35;9.50;99.90
24049;DHT22;12250;50.956;4.746;2023-03-14T10:13:23;9.40;99.90
24049;DHT22;12250;50.956;4.746;2023-03-14T10:16:01;9.30;99.90
24049;DHT22;12250;50.956;4.746;2023-03-14T10:18:29;9.10;99.90
24049;DHT22;12250;50.956;4.746;2023-03-14T10:21:20;8.90;99.90
24049;DHT22;12250;50.956;4.746;2023-03-14T10:23:46;8.70;99.90
24049;DHT22;12250;50.956;4.746;2023-03-14T10:26:17;8.60;99.90
24049;DHT22;12250;50.956;4.746;2023-03-14T10:29:04;8.60;99.90
24049;DHT22;12250;50.956;4.746;2023-03-14T10:32:04;8.50;99.90
24049;DHT22;12250;50.956;4.746;2023-03-14T10:34:34;8.60;99.90
24049;DHT22;12250;50.956;4.746;2023-03-14T10:37:21;8.70;99.90
24049;DHT22;12250;50.956;4.746;2023-03-14T10:39:50;8.70;99.90
24049;DHT22;12250;50.956;4.746;2023-03-14T10:44:42;8.70;99.90
24049;DHT22;12250;50.956;4.746;2023-03-14T10:47:21;8.80;99.90
24049;DHT22;12250;50.956;4.746;2023-03-14T10:49:47;8.80;99.90
24049;DHT22;12250;50.956;4.746;2023-03-14T10:52:28;8.90;99.90
24049;DHT22;12250;50.956;4.746;2023-03-14T10:55:00;8.80;99.90
24049;DHT22;12250;50.956;4.746;2023-03-14T10:57:26;8.70;99.90
24049;DHT22;12250;50.956;4.746;2023-03-14T10:59:54;8.70;99.90
24049;DHT22;12250;50.956;4.746;2023-03-14T11:05:28;8.70;99.90
24049;DHT22;12250;50.956;4.746;2023-03-14T11:08:27;8.50;99.90
24049;DHT22;12250;50.956;4.746;2023-03-14T11:11:19;8.30;99.90
24049;DHT22;12250;50.956;4.746;2023-03-14T11:22:05;7.60;99.90
24049;DHT22;12250;50.956;4.746;2023-03-14T11:24:48;7.60;99.90
24049;DHT22;12250;50.956;4.746;2023-03-14T11:27:22;7.60;99.90
24049;DHT22;12250;50.956;4.746;2023-03-14T11:38:09;8.80;99.90
24049;DHT22;12250;50.956;4.746;2023-03-14T11:40:36;9.20;99.90
24049;DHT22;12250;50.956;4.746;2023-03-14T11:43:26;9.60;99.90
24049;DHT22;12250;50.956;4.746;2023-03-14T11:45:58;9.70;99.90
24049;DHT22;12250;50.956;4.746;2023-03-14T11:51:27;10.00;99.90
24049;DHT22;12250;50.956;4.746;2023-03-14T11:56:37;10.40;99.90
24049;DHT22;12250;50.956;4.746;2023-03-14T11:59:09;10.60;99.90
24049;DHT22;12250;50.956;4.746;2023-03-14T12:02:01;10.70;99.90
24049;DHT22;12250;50.956;4.746;2023-03-14T12:07:14;10.20;99.90
24049;DHT22;12250;50.956;4.746;2023-03-14T12:09:42;9.90;99.90
24049;DHT22;12250;50.956;4.746;2023-03-14T12:12:14;9.70;99.90
24049;DHT22;12250;50.956;4.746;2023-03-14T12:14:52;9.70;99.90
24049;DHT22;12250;50.956;4.746;2023-03-14T12:17:25;9.80;99.90
24049;DHT22;12250;50.956;4.746;2023-03-14T12:20:16;10.10;99.90
24049;DHT22;12250;50.956;4.746;2023-03-14T12:23:02;10.00;99.90
24049;DHT22;12250;50.956;4.746;2023-03-14T12:25:33;9.80;99.90
24049;DHT22;12250;50.956;4.746;2023-03-14T12:38:06;7.40;99.90
24049;DHT22;12250;50.956;4.746;2023-03-14T12:40:41;7.40;99.90
24049;DHT22;12250;50.956;4.746;2023-03-14T12:43:28;7.30;99.90
24049;DHT22;12250;50.956;4.746;2023-03-14T12:48:40;7.50;99.90
24049;DHT22;12250;50.956;4.746;2023-03-14T12:51:14;7.60;99.90
24049;DHT22;12250;50.956;4.746;2023-03-14T12:59:56;8.80;99.90
24049;DHT22;12250;50.956;4.746;2023-03-14T13:02:23;9.10;99.90
24049;DHT22;12250;50.956;4.746;2023-03-14T13:05:14;9.40;99.90
24049;DHT22;12250;50.956;4.746;2023-03-14T13:15:42;9.60;99.90
24049;DHT22;12250;50.956;4.746;2023-03-14T13:18:15;9.30;99.90
24049;DHT22;12250;50.956;4.746;2023-03-14T13:20:51;9.00;99.90
24049;DHT22;12250;50.956;4.746;2023-03-14T13:23:22;8.80;99.90
24049;DHT22;12250;50.956;4.746;2023-03-14T13:25:48;8.40;99.90
24049;DHT22;12250;50.956;4.746;2023-03-14T13:28:14;8.10;99.90
24049;DHT22;12250;50.956;4.746;2023-03-14T13:30:44;7.50;99.90
24049;DHT22;12250;50.956;4.746;2023-03-14T13:33:18;6.90;99.90
24049;DHT22;12250;50.956;4.746;2023-03-14T13:35:53;6.60;99.90
24049;DHT22;12250;50.956;4.746;2023-03-14T13:38:26;6.40;99.90
24049;DHT22;12250;50.956;4.746;2023-03-14T13:40:54;6.30;99.90
24049;DHT22;12250;50.956;4.746;2023-03-14T13:43:28;6.40;99.90
24049;DHT22;12250;50.956;4.746;2023-03-14T13:48:43;6.50;99.90
24049;DHT22;12250;50.956;4.746;2023-03-14T13:51:12;6.70;99.90
24049;DHT22;12250;50.956;4.746;2023-03-14T13:53:48;6.90;99.90
24049;DHT22;12250;50.956;4.746;2023-03-14T13:56:16;7.10;99.90
24049;DHT22;12250;50.956;4.746;2023-03-14T13:58:42;7.30;99.90
24049;DHT22;12250;50.956;4.746;2023-03-14T14:01:18;7.50;99.90
24049;DHT22;12250;50.956;4.746;2023-03-14T14:03:48;7.70;99.90
24049;DHT22;12250;50.956;4.746;2023-03-14T14:08:43;8.10;99.90
24049;DHT22;12250;50.956;4.746;2023-03-14T14:11:16;8.30;99.90
24049;DHT22;12250;50.956;4.746;2023-03-14T14:13:42;8.50;99.90
24049;DHT22;12250;50.956;4.746;2023-03-14T14:16:08;8.60;99.90
24049;DHT22;12250;50.956;4.746;2023-03-14T14:18:35;8.70;99.90
24049;DHT22;12250;50.956;4.746;2023-03-14T14:21:02;8.90;99.90
24049;DHT22;12250;50.956;4.746;2023-03-14T14:23:28;9.10;99.90
24049;DHT22;12250;50.956;4.746;2023-03-14T14:25:56;9.20;99.90
24049;DHT22;12250;50.956;4.746;2023-03-14T14:28:28;9.40;99.90
24049;DHT22;12250;50.956;4.746;2023-03-14T14:33:38;9.70;99.90
24049;DHT22;12250;50.956;4.746;2023-03-14T14:36:04;9.80;99.90
24049;DHT22;12250;50.956;4.746;2023-03-14T14:38:30;9.90;99.90
24049;DHT22;12250;50.956;4.746;2023-03-14T14:41:00;10.00;99.90
24049;DHT22;12250;50.956;4.746;2023-03-14T14:43:28;10.20;99.90
24049;DHT22;12250;50.956;4.746;2023-03-14T14:45:56;10.30;99.90
24049;DHT22;12250;50.956;4.746;2023-03-14T14:48:25;10.30;99.90
24049;DHT22;12250;50.956;4.746;2023-03-14T14:51:03;10.20;99.90
24049;DHT22;12250;50.956;4.746;2023-03-14T14:53:42;9.80;99.90
24049;DHT22;12250;50.956;4.746;2023-03-14T14:56:25;9.60;99.90
24049;DHT22;12250;50.956;4.746;2023-03-14T14:58:59;9.20;99.90
24049;DHT22;12250;50.956;4.746;2023-03-14T15:01:33;9.00;99.90
24049;DHT22;12250;50.956;4.746;2023-03-14T15:04:00;8.70;99.90
24049;DHT22;12250;50.956;4.746;2023-03-14T15:06:28;8.30;99.90
24049;DHT22;12250;50.956;4.746;2023-03-14T15:08:55;8.10;99.90
24049;DHT22;12250;50.956;4.746;2023-03-14T15:11:23;7.90;99.90
24049;DHT22;12250;50.956;4.746;2023-03-14T15:13:49;7.70;99.90
24049;DHT22;12250;50.956;4.746;2023-03-14T15:16:28;7.60;99.90
24049;DHT22;12250;50.956;4.746;2023-03-14T15:18:57;7.60;99.90
24049;DHT22;12250;50.956;4.746;2023-03-14T15:21:24;7.60;99.90
24049;DHT22;12250;50.956;4.746;2023-03-14T15:23:50;7.60;99.90
24049;DHT22;12250;50.956;4.746;2023-03-14T15:26:19;7.70;99.90
24049;DHT22;12250;50.956;4.746;2023-03-14T15:28:45;7.80;99.90
24049;DHT22;12250;50.956;4.746;2023-03-14T15:31:12;7.80;99.90
24049;DHT22;12250;50.956;4.746;2023-03-14T15:33:38;7.90;99.90
24049;DHT22;12250;50.956;4.746;2023-03-14T15:36:06;8.00;99.90
24049;DHT22;12250;50.956;4.746;2023-03-14T15:38:32;8.00;99.90
24049;DHT22;12250;50.956;4.746;2023-03-14T15:40:57;8.00;99.90
24049;DHT22;12250;50.956;4.746;2023-03-14T15:43:23;8.10;99.90
24049;DHT22;12250;50.956;4.746;2023-03-14T15:45:49;8.10;99.90
24049;DHT22;12250;50.956;4.746;2023-03-14T15:48:19;8.10;99.90
24049;DHT22;12250;50.956;4.746;2023-03-14T15:50:46;8.20;99.90
24049;DHT22;12250;50.956;4.746;2023-03-14T15:53:12;8.20;99.90
24049;DHT22;12250;50.956;4.746;2023-03-14T15:55:38;8.20;99.90
24049;DHT22;12250;50.956;4.746;2023-03-14T15:58:04;8.10;99.90
24049;DHT22;12250;50.956;4.746;2023-03-14T16:00:30;8.10;99.90
24049;DHT22;12250;50.956;4.746;2023-03-14T16:02:56;8.00;99.90
24049;DHT22;12250;50.956;4.746;2023-03-14T16:05:22;7.80;99.90
24049;DHT22;12250;50.956;4.746;2023-03-14T16:07:48;7.80;99.90
24049;DHT22;12250;50.956;4.746;2023-03-14T16:10:14;7.70;99.90
24049;DHT22;12250;50.956;4.746;2023-03-14T16:12:40;7.60;99.90
24049;DHT22;12250;50.956;4.746;2023-03-14T16:15:07;7.50;99.90
24049;DHT22;12250;50.956;4.746;2023-03-14T16:17:34;7.40;99.90
24049;DHT22;12250;50.956;4.746;2023-03-14T16:19:59;7.40;99.90
24049;DHT22;12250;50.956;4.746;2023-03-14T16:22:25;7.40;99.90
24049;DHT22;12250;50.956;4.746;2023-03-14T16:24:51;7.40;99.90
24049;DHT22;12250;50.956;4.746;2023-03-14T16:27:17;7.40;99.90
24049;DHT22;12250;50.956;4.746;2023-03-14T16:29:43;7.40;99.90
24049;DHT22;12250;50.956;4.746;2023-03-14T16:32:09;7.30;99.90
24049;DHT22;12250;50.956;4.746;2023-03-14T16:34:37;7.20;99.90
24049;DHT22;12250;50.956;4.746;2023-03-14T16:37:03;7.20;99.90
24049;DHT22;12250;50.956;4.746;2023-03-14T16:39:29;7.10;99.90
24049;DHT22;12250;50.956;4.746;2023-03-14T16:41:57;7.00;99.90
24049;DHT22;12250;50.956;4.746;2023-03-14T16:44:23;6.90;99.90
24049;DHT22;12250;50.956;4.746;2023-03-14T16:46:49;6.90;99.90
24049;DHT22;12250;50.956;4.746;2023-03-14T16:49:14;6.80;99.90
24049;DHT22;12250;50.956;4.746;2023-03-14T16:51:40;6.70;99.90
24049;DHT22;12250;50.956;4.746;2023-03-14T16:54:06;6.80;99.90
24049;DHT22;12250;50.956;4.746;2023-03-14T16:56:32;6.70;99.90
24049;DHT22;12250;50.956;4.746;2023-03-14T16:58:58;6.70;99.90
24049;DHT22;12250;50.956;4.746;2023-03-14T17:01:24;6.80;99.90